createdAt,value
2022-11-07T00:00:19.018Z,3.17
2022-11-07T00:02:47.522Z,2.33
2022-11-07T00:05:15.981Z,2.73
2022-11-07T00:07:45.772Z,3.40
2022-11-07T00:10:14.240Z,2.13
2022-11-07T00:12:43.121Z,2.70
2022-11-07T00:15:12.448Z,4.20
2022-11-07T00:17:41.175Z,1.83
2022-11-07T00:20:10.266Z,2.13
2022-11-07T00:22:38.728Z,1.80
2022-11-07T00:25:09.345Z,1.80
2022-11-07T00:27:37.805Z,1.87
2022-11-07T00:30:06.849Z,4.80
2022-11-07T00:32:35.292Z,1.63
2022-11-07T00:35:03.734Z,1.60
2022-11-07T00:37:32.166Z,2.07
2022-11-07T00:40:00.608Z,1.97
2022-11-07T00:42:30.596Z,2.30
2022-11-07T00:44:58.976Z,2.07
2022-11-07T00:47:27.405Z,1.40
2022-11-07T00:49:55.844Z,2.63
2022-11-07T00:52:24.256Z,1.93
2022-11-07T00:54:53.143Z,1.67
2022-11-07T00:57:21.660Z,1.43
2022-11-07T00:59:51.424Z,1.60
2022-11-07T01:02:19.935Z,2.37
2022-11-07T01:05:06.071Z,1.93
2022-11-07T01:07:34.903Z,2.20
2022-11-07T01:10:03.364Z,2.10
2022-11-07T01:12:31.941Z,2.30
2022-11-07T01:15:01.874Z,2.03
2022-11-07T01:17:30.697Z,2.27
2022-11-07T01:19:59.156Z,2.70
2022-11-07T01:22:27.606Z,2.57
2022-11-07T01:24:56.038Z,3.43
2022-11-07T01:27:24.484Z,1.97
2022-11-07T01:29:52.923Z,2.00
2022-11-07T01:32:22.728Z,2.43
2022-11-07T01:34:51.154Z,4.10
2022-11-07T01:37:19.653Z,3.50
2022-11-07T01:39:48.127Z,2.53
2022-11-07T01:42:16.831Z,3.23
2022-11-07T01:44:55.860Z,3.80
2022-11-07T01:47:27.131Z,4.03
2022-11-07T01:49:55.639Z,2.50
2022-11-07T01:52:25.789Z,2.97
2022-11-07T01:54:57.848Z,1.83
2022-11-07T01:57:29.455Z,1.97
2022-11-07T01:59:59.499Z,3.40
2022-11-07T02:02:29.909Z,2.63
2022-11-07T02:04:59.771Z,2.37
2022-11-07T02:07:28.284Z,3.40
2022-11-07T02:09:57.039Z,3.90
2022-11-07T02:12:26.541Z,1.90
2022-11-07T02:14:55.337Z,3.87
2022-11-07T02:17:23.911Z,2.30
2022-11-07T02:19:56.546Z,2.93
2022-11-07T02:22:32.341Z,1.87
2022-11-07T02:25:03.219Z,1.50
2022-11-07T02:27:33.134Z,1.90
2022-11-07T02:30:03.856Z,3.30
2022-11-07T02:32:32.570Z,2.40
2022-11-07T02:35:04.052Z,2.50
2022-11-07T02:37:34.207Z,2.57
2022-11-07T02:40:06.670Z,3.00
2022-11-07T02:42:44.366Z,2.17
2022-11-07T02:45:21.120Z,3.80
2022-11-07T02:47:49.556Z,2.67
2022-11-07T02:50:18.254Z,2.07
2022-11-07T02:52:46.689Z,3.20
2022-11-07T02:55:16.970Z,3.80
2022-11-07T02:57:45.511Z,2.93
2022-11-07T03:00:14.875Z,2.90
2022-11-07T03:02:47.063Z,2.80
2022-11-07T03:05:16.540Z,2.30
2022-11-07T03:07:46.551Z,2.63
2022-11-07T03:10:16.927Z,2.57
2022-11-07T03:12:45.398Z,3.03
2022-11-07T03:15:14.243Z,3.03
2022-11-07T03:17:42.698Z,3.00
2022-11-07T03:20:12.797Z,2.73
2022-11-07T03:22:41.449Z,2.40
2022-11-07T03:25:09.851Z,2.90
2022-11-07T03:27:46.978Z,2.97
2022-11-07T03:30:15.398Z,4.47
2022-11-07T03:32:43.822Z,3.03
2022-11-07T03:35:12.570Z,2.30
2022-11-07T03:37:41.206Z,1.30
2022-11-07T03:40:09.946Z,2.10
2022-11-07T03:42:43.575Z,2.50
2022-11-07T03:45:12.722Z,3.57
2022-11-07T03:47:42.719Z,2.10
2022-11-07T03:50:12.859Z,4.03
2022-11-07T03:52:41.370Z,3.47
2022-11-07T03:55:10.280Z,2.97
2022-11-07T03:57:39.824Z,2.00
2022-11-07T04:00:10.609Z,3.37
2022-11-07T04:02:41.776Z,5.03
2022-11-07T04:05:10.840Z,4.47
2022-11-07T04:07:39.378Z,2.33
2022-11-07T04:10:07.946Z,2.30
2022-11-07T04:12:54.024Z,2.20
2022-11-07T04:15:44.737Z,2.60
2022-11-07T04:18:13.209Z,2.50
2022-11-07T04:20:41.708Z,5.63
2022-11-07T04:23:10.206Z,2.80
2022-11-07T04:25:56.081Z,4.77
2022-11-07T04:28:24.591Z,4.20
2022-11-07T04:30:57.446Z,2.73
2022-11-07T04:33:25.936Z,2.20
2022-11-07T04:35:54.419Z,2.17
2022-11-07T04:38:22.835Z,3.83
2022-11-07T04:40:56.601Z,2.37
2022-11-07T04:43:25.986Z,3.37
2022-11-07T04:45:54.399Z,3.83
2022-11-07T04:48:24.273Z,2.37
2022-11-07T04:50:52.716Z,2.00
2022-11-07T04:53:21.320Z,3.47
2022-11-07T04:55:49.806Z,3.93
2022-11-07T04:58:19.284Z,3.00
2022-11-07T05:00:47.696Z,2.87
2022-11-07T05:03:16.542Z,2.97
2022-11-07T05:05:46.600Z,3.50
2022-11-07T05:08:15.019Z,4.47
2022-11-07T05:10:43.767Z,2.73
2022-11-07T05:13:12.630Z,4.30
2022-11-07T05:15:41.544Z,2.87
2022-11-07T05:18:11.076Z,5.50
2022-11-07T05:20:40.306Z,3.60
2022-11-07T05:23:17.855Z,4.13
2022-11-07T05:25:47.658Z,6.23
2022-11-07T05:28:17.270Z,4.87
2022-11-07T05:30:46.661Z,5.67
2022-11-07T05:33:16.967Z,4.03
2022-11-07T05:35:45.993Z,4.80
2022-11-07T05:38:15.801Z,7.20
2022-11-07T05:40:44.247Z,4.07
2022-11-07T05:43:14.404Z,5.40
2022-11-07T05:45:43.323Z,4.50
2022-11-07T05:48:12.724Z,4.20
2022-11-07T05:50:41.708Z,5.00
2022-11-07T05:53:10.410Z,4.70
2022-11-07T05:55:40.198Z,6.40
2022-11-07T05:58:12.600Z,3.90
2022-11-07T06:00:41.742Z,4.33
2022-11-07T06:03:10.460Z,4.27
2022-11-07T06:05:39.453Z,4.10
2022-11-07T06:08:08.691Z,3.93
2022-11-07T06:10:38.118Z,5.07
2022-11-07T06:13:09.771Z,5.13
2022-11-07T06:15:39.001Z,3.57
2022-11-07T06:18:09.389Z,5.33
2022-11-07T06:20:37.950Z,7.00
2022-11-07T06:23:07.239Z,4.83
2022-11-07T06:25:36.020Z,6.53
2022-11-07T06:28:05.508Z,11.77
2022-11-07T06:30:35.670Z,6.07
2022-11-07T06:33:04.792Z,5.80
2022-11-07T06:35:33.331Z,6.53
2022-11-07T06:38:03.571Z,5.77
2022-11-07T06:40:32.081Z,6.23
2022-11-07T06:43:07.036Z,6.77
2022-11-07T06:45:37.379Z,4.67
2022-11-07T06:48:06.016Z,7.40
2022-11-07T06:50:34.776Z,6.10
2022-11-07T06:53:03.925Z,5.53
2022-11-07T06:55:33.975Z,8.60
2022-11-07T06:58:02.776Z,7.73
2022-11-07T07:00:31.477Z,6.70
2022-11-07T07:03:01.476Z,5.83
2022-11-07T07:05:30.488Z,8.23
2022-11-07T07:07:58.882Z,5.93
2022-11-07T07:10:27.279Z,6.03
2022-11-07T07:12:56.590Z,4.53
2022-11-07T07:15:25.736Z,4.70
2022-11-07T07:17:54.274Z,5.90
2022-11-07T07:20:27.270Z,6.03
2022-11-07T07:23:02.820Z,4.10
2022-11-07T07:25:34.119Z,3.37
2022-11-07T07:28:02.644Z,5.70
2022-11-07T07:30:32.193Z,5.60
2022-11-07T07:33:00.664Z,5.90
2022-11-07T07:35:30.536Z,6.10
2022-11-07T07:37:59.391Z,4.40
2022-11-07T07:40:27.790Z,4.47
2022-11-07T07:42:56.281Z,7.03
2022-11-07T07:45:24.884Z,4.87
2022-11-07T07:47:54.061Z,6.20
2022-11-07T07:50:22.499Z,6.10
2022-11-07T07:52:57.346Z,3.67
2022-11-07T07:55:28.836Z,4.03
2022-11-07T07:57:57.462Z,4.37
2022-11-07T08:00:25.914Z,5.43
2022-11-07T08:03:01.605Z,6.43
2022-11-07T08:05:30.362Z,5.47
2022-11-07T08:08:00.237Z,5.50
2022-11-07T08:10:41.970Z,3.57
2022-11-07T08:13:11.450Z,5.87
2022-11-07T08:15:39.846Z,5.80
2022-11-07T08:18:08.623Z,3.70
2022-11-07T08:20:37.053Z,4.63
2022-11-07T08:23:12.858Z,3.40
2022-11-07T08:25:44.329Z,2.50
2022-11-07T08:28:13.170Z,4.43
2022-11-07T08:30:41.587Z,4.53
2022-11-07T08:33:10.410Z,4.27
2022-11-07T08:35:42.467Z,2.97
2022-11-07T08:38:12.709Z,3.57
2022-11-07T08:40:41.211Z,3.13
2022-11-07T08:43:09.682Z,3.77
2022-11-07T08:45:38.081Z,2.80
2022-11-07T08:48:07.827Z,4.83
2022-11-07T08:50:36.778Z,2.37
2022-11-07T08:53:06.165Z,4.47
2022-11-07T08:55:36.078Z,2.80
2022-11-07T08:58:05.679Z,4.50
2022-11-07T09:00:35.408Z,4.67
2022-11-07T09:05:52.956Z,2.63
2022-11-07T09:08:21.556Z,3.07
2022-11-07T09:10:51.367Z,4.20
2022-11-07T09:13:20.759Z,6.33
2022-11-07T09:15:51.676Z,4.03
2022-11-07T09:18:20.820Z,2.37
2022-11-07T09:20:49.278Z,4.13
2022-11-07T09:23:18.226Z,2.80
2022-11-07T09:25:47.367Z,1.30
2022-11-07T09:28:17.297Z,3.87
2022-11-07T09:30:45.721Z,4.30
2022-11-07T09:33:14.515Z,5.63
2022-11-07T09:35:43.084Z,2.60
2022-11-07T09:38:11.580Z,4.40
2022-11-07T09:40:49.021Z,6.60
2022-11-07T09:43:28.258Z,7.77
2022-11-07T09:46:01.205Z,4.50
2022-11-07T09:48:33.531Z,5.27
2022-11-07T09:51:02.450Z,5.60
2022-11-07T09:53:33.439Z,5.20
2022-11-07T09:56:04.055Z,7.03
2022-11-07T09:58:36.364Z,2.83
2022-11-07T10:01:06.945Z,3.43
2022-11-07T10:03:36.824Z,1.30
2022-11-07T10:06:08.440Z,2.33
2022-11-07T10:08:39.171Z,3.43
2022-11-07T10:11:10.135Z,3.53
2022-11-07T10:13:53.584Z,2.53
2022-11-07T10:16:28.218Z,1.90
2022-11-07T10:19:01.403Z,3.00
2022-11-07T10:21:39.722Z,2.33
2022-11-07T10:24:16.652Z,3.27
2022-11-07T10:26:46.702Z,1.80
2022-11-07T10:29:17.571Z,3.60
2022-11-07T10:31:48.563Z,5.80
2022-11-07T10:34:22.567Z,2.20
2022-11-07T10:36:51.381Z,2.63
2022-11-07T10:39:21.016Z,2.57
2022-11-07T10:41:53.951Z,3.27
2022-11-07T10:44:25.826Z,1.90
2022-11-07T10:46:57.356Z,1.87
2022-11-07T10:49:27.272Z,2.13
2022-11-07T10:51:56.586Z,2.47
2022-11-07T10:54:29.002Z,4.60
2022-11-07T10:57:00.493Z,1.47
2022-11-07T10:59:36.093Z,2.53
2022-11-07T11:02:06.239Z,5.97
2022-11-07T11:04:35.047Z,3.07
2022-11-07T11:07:04.309Z,2.80
2022-11-07T11:09:34.039Z,2.97
2022-11-07T11:12:06.479Z,3.57
2022-11-07T11:14:36.348Z,5.70
2022-11-07T11:17:05.307Z,3.80
2022-11-07T11:19:38.421Z,3.77
2022-11-07T11:22:13.085Z,5.27
2022-11-07T11:24:41.499Z,4.93
2022-11-07T11:27:14.489Z,5.83
2022-11-07T11:29:47.131Z,4.20
2022-11-07T11:32:21.271Z,3.87
2022-11-07T11:34:53.216Z,4.27
2022-11-07T11:37:22.681Z,1.83
2022-11-07T11:39:52.765Z,3.20
2022-11-07T11:42:28.587Z,2.57
2022-11-07T11:45:00.777Z,3.17
2022-11-07T11:47:34.652Z,2.57
2022-11-07T11:50:05.997Z,3.63
2022-11-07T11:52:34.548Z,3.17
2022-11-07T11:55:05.826Z,2.67
2022-11-07T11:57:40.627Z,5.23
2022-11-07T12:00:14.900Z,6.20
2022-11-07T12:02:50.148Z,4.77
2022-11-07T12:05:28.668Z,3.97
2022-11-07T12:08:00.645Z,7.37
2022-11-07T12:10:32.281Z,8.57
2022-11-07T12:13:06.784Z,11.07
2022-11-07T12:15:40.699Z,6.93
2022-11-07T12:18:15.216Z,6.47
2022-11-07T12:20:47.498Z,6.80
2022-11-07T12:23:22.379Z,5.13
2022-11-07T12:25:56.319Z,4.80
2022-11-07T12:28:32.427Z,2.97
2022-11-07T12:31:08.903Z,3.53
2022-11-07T12:33:44.306Z,3.73
2022-11-07T12:36:15.547Z,5.50
2022-11-07T12:38:58.556Z,2.67
2022-11-07T12:41:36.117Z,3.00
2022-11-07T12:44:13.903Z,2.73
2022-11-07T12:46:47.956Z,5.60
2022-11-07T12:49:46.676Z,2.83
2022-11-07T12:52:26.799Z,6.17
2022-11-07T12:55:00.103Z,2.73
2022-11-07T12:57:30.689Z,3.80
2022-11-07T13:00:00.654Z,3.63
2022-11-07T13:02:41.007Z,3.27
2022-11-07T13:05:18.352Z,3.30
2022-11-07T13:07:50.305Z,1.90
2022-11-07T13:10:21.579Z,3.57
2022-11-07T13:12:54.104Z,3.00
2022-11-07T13:15:24.813Z,3.90
2022-11-07T13:17:54.695Z,3.60
2022-11-07T13:20:27.575Z,4.60
2022-11-07T13:22:56.942Z,2.43
2022-11-07T13:25:26.801Z,1.57
2022-11-07T13:28:03.247Z,3.80
2022-11-07T13:30:36.340Z,5.30
2022-11-07T13:33:06.627Z,4.13
2022-11-07T13:35:36.121Z,2.23
2022-11-07T13:38:08.875Z,5.40
2022-11-07T13:40:39.328Z,3.50
2022-11-07T13:43:13.707Z,2.87
2022-11-07T13:45:43.845Z,3.20
2022-11-07T13:48:18.158Z,3.27
2022-11-07T13:50:50.078Z,2.63
2022-11-07T13:53:21.267Z,2.97
2022-11-07T13:55:52.876Z,2.87
2022-11-07T13:58:22.527Z,2.47
2022-11-07T14:00:51.243Z,1.93
2022-11-07T14:03:28.246Z,3.17
2022-11-07T14:05:57.289Z,2.80
2022-11-07T14:08:27.880Z,4.10
2022-11-07T14:10:56.859Z,3.50
2022-11-07T14:13:27.030Z,1.60
2022-11-07T14:15:56.801Z,8.47
2022-11-07T14:18:28.271Z,4.03
2022-11-07T14:20:57.613Z,3.30
2022-11-07T14:23:27.231Z,6.70
2022-11-07T14:25:56.886Z,3.07
2022-11-07T14:28:25.958Z,2.50
2022-11-07T14:30:54.663Z,3.73
2022-11-07T14:33:24.591Z,3.17
2022-11-07T14:35:54.699Z,2.03
2022-11-07T14:38:26.312Z,7.60
2022-11-07T14:40:55.565Z,2.23
2022-11-07T14:43:25.193Z,2.77
2022-11-07T14:46:11.868Z,2.10
2022-11-07T14:48:43.368Z,4.37
2022-11-07T14:51:14.375Z,7.77
2022-11-07T14:53:46.967Z,3.80
2022-11-07T14:56:17.006Z,6.43
2022-11-07T14:58:45.596Z,4.73
2022-11-07T15:01:15.254Z,3.53
2022-11-07T15:03:52.326Z,3.90
2022-11-07T15:06:24.852Z,5.20
2022-11-07T15:09:00.901Z,6.83
2022-11-07T15:11:32.094Z,4.97
2022-11-07T15:14:01.279Z,4.70
2022-11-07T15:16:34.452Z,3.30
2022-11-07T15:19:04.862Z,3.70
2022-11-07T15:21:35.914Z,7.03
2022-11-07T15:24:19.177Z,3.00
2022-11-07T15:26:47.864Z,3.30
2022-11-07T15:29:16.999Z,7.03
2022-11-07T15:31:49.477Z,4.03
2022-11-07T15:34:33.775Z,4.37
2022-11-07T15:37:13.014Z,5.83
2022-11-07T15:39:41.755Z,6.10
2022-11-07T15:42:10.314Z,7.63
2022-11-07T15:44:38.747Z,5.87
2022-11-07T15:47:07.855Z,4.73
2022-11-07T15:49:37.477Z,8.47
2022-11-07T15:52:06.080Z,4.40
2022-11-07T15:54:35.976Z,5.33
2022-11-07T15:57:06.657Z,5.33
2022-11-07T15:59:37.078Z,3.73
2022-11-07T16:02:06.222Z,4.23
2022-11-07T16:04:39.427Z,4.20
2022-11-07T16:07:10.897Z,5.37
2022-11-07T16:09:40.802Z,4.33
2022-11-07T16:12:10.946Z,8.30
2022-11-07T16:14:44.403Z,5.83
2022-11-07T16:17:14.384Z,7.20
2022-11-07T16:19:44.477Z,5.90
2022-11-07T16:22:13.899Z,7.17
2022-11-07T16:24:43.991Z,8.83
2022-11-07T16:27:18.625Z,5.13
2022-11-07T16:29:48.494Z,9.37
2022-11-07T16:32:18.583Z,7.07
2022-11-07T16:34:48.133Z,9.97
2022-11-07T16:37:16.570Z,8.43
2022-11-07T16:39:46.628Z,6.53
2022-11-07T16:42:16.982Z,9.17
2022-11-07T16:44:46.455Z,7.87
2022-11-07T16:47:16.270Z,9.87
2022-11-07T16:49:46.139Z,5.13
2022-11-07T16:52:16.210Z,8.27
2022-11-07T16:54:47.779Z,7.67
2022-11-07T16:57:17.225Z,6.03
2022-11-07T16:59:46.010Z,7.63
2022-11-07T17:02:21.353Z,9.90
2022-11-07T17:04:50.489Z,7.03
2022-11-07T17:07:19.749Z,9.20
2022-11-07T17:09:49.574Z,10.47
2022-11-07T17:12:19.527Z,6.90
2022-11-07T17:14:48.529Z,8.07
2022-11-07T17:17:17.504Z,12.27
2022-11-07T17:19:46.245Z,8.30
2022-11-07T17:22:15.438Z,8.67
2022-11-07T17:24:45.102Z,6.87
2022-11-07T17:27:20.703Z,9.07
2022-11-07T17:29:49.287Z,7.33
2022-11-07T17:32:17.952Z,9.17
2022-11-07T17:34:59.190Z,7.83
2022-11-07T17:37:33.244Z,10.37
2022-11-07T17:40:01.920Z,11.17
2022-11-07T17:42:37.621Z,8.13
2022-11-07T17:45:07.257Z,11.47
2022-11-07T17:47:37.982Z,9.07
2022-11-07T17:50:07.004Z,11.63
2022-11-07T17:52:35.656Z,12.00
2022-11-07T17:55:04.214Z,9.87
2022-11-07T17:57:34.385Z,8.53
2022-11-07T18:00:04.080Z,11.43
2022-11-07T18:02:33.086Z,11.83
2022-11-07T18:05:01.623Z,13.20
2022-11-07T18:07:30.039Z,13.67
2022-11-07T18:09:58.467Z,13.33
2022-11-07T18:12:26.971Z,11.53
2022-11-07T18:14:56.753Z,13.70
2022-11-07T18:17:25.213Z,14.20
2022-11-07T18:19:53.764Z,14.47
2022-11-07T18:22:22.415Z,14.53
2022-11-07T18:24:50.962Z,11.90
2022-11-07T18:27:20.187Z,13.27
2022-11-07T18:29:49.411Z,14.63
2022-11-07T18:32:19.639Z,11.27
2022-11-07T18:34:48.100Z,11.57
2022-11-07T18:37:18.266Z,10.47
2022-11-07T18:39:46.739Z,11.43
2022-11-07T18:42:15.196Z,12.33
2022-11-07T18:44:43.694Z,12.13
2022-11-07T18:47:12.317Z,12.30
2022-11-07T18:49:42.090Z,12.97
2022-11-07T18:52:10.668Z,9.37
2022-11-07T18:54:39.164Z,10.60
2022-11-07T18:57:07.583Z,12.20
2022-11-07T18:59:36.035Z,10.20
2022-11-07T19:02:04.528Z,10.00
2022-11-07T19:04:33.960Z,11.67
2022-11-07T19:07:03.949Z,8.13
2022-11-07T19:09:33.491Z,8.17
2022-11-07T19:12:02.530Z,8.43
2022-11-07T19:14:31.433Z,8.90
2022-11-07T19:17:00.173Z,9.87
2022-11-07T19:19:28.776Z,8.97
2022-11-07T19:21:57.198Z,8.47
2022-11-07T19:24:26.981Z,7.27
2022-11-07T19:26:55.540Z,11.50
2022-11-07T19:29:24.307Z,9.70
2022-11-07T19:31:53.011Z,9.97
2022-11-07T19:34:21.511Z,7.70
2022-11-07T19:36:50.183Z,9.67
2022-11-07T19:39:18.624Z,10.13
2022-11-07T19:41:48.864Z,11.70
2022-11-07T19:44:17.543Z,10.60
2022-11-07T19:46:45.966Z,12.23
2022-11-07T19:49:15.729Z,8.07
2022-11-07T19:51:44.191Z,10.87
2022-11-07T19:54:13.851Z,14.23
2022-11-07T19:56:42.560Z,13.40
2022-11-07T19:59:12.381Z,11.20
2022-11-07T20:01:40.972Z,12.23
2022-11-07T20:04:09.707Z,9.70
2022-11-07T20:06:39.929Z,14.00
2022-11-07T20:09:09.714Z,12.80
2022-11-07T20:11:38.302Z,12.93
2022-11-07T20:14:07.429Z,10.37
2022-11-07T20:16:37.947Z,7.10
2022-11-07T20:19:06.473Z,11.87
2022-11-07T20:21:34.946Z,8.97
2022-11-07T20:24:05.394Z,11.63
2022-11-07T20:26:34.163Z,11.23
2022-11-07T20:29:03.121Z,9.53
2022-11-07T20:31:33.274Z,9.97
2022-11-07T20:34:04.180Z,11.70
2022-11-07T20:36:33.342Z,7.33
2022-11-07T20:39:02.233Z,7.13
2022-11-07T20:41:31.023Z,8.93
2022-11-07T20:44:02.068Z,6.67
2022-11-07T20:46:31.398Z,10.87
2022-11-07T20:48:59.970Z,9.60
2022-11-07T20:51:29.828Z,10.53
2022-11-07T20:54:01.442Z,8.40
2022-11-07T20:56:33.734Z,8.80
2022-11-07T20:59:02.232Z,7.63
2022-11-07T21:01:36.295Z,8.67
2022-11-07T21:04:05.235Z,7.60
2022-11-07T21:06:35.461Z,8.03
2022-11-07T21:09:04.182Z,9.70
2022-11-07T21:11:32.611Z,10.00
2022-11-07T21:14:01.190Z,9.30
2022-11-07T21:16:29.658Z,11.87
2022-11-07T21:18:58.307Z,11.00
2022-11-07T21:21:28.051Z,9.97
2022-11-07T21:23:59.101Z,10.10
2022-11-07T21:26:28.964Z,9.93
2022-11-07T21:28:57.956Z,10.63
2022-11-07T21:31:28.598Z,14.97
2022-11-07T21:33:57.600Z,11.27
2022-11-07T21:36:27.409Z,11.97
2022-11-07T21:38:55.865Z,14.83
2022-11-07T21:41:26.090Z,12.00
2022-11-07T21:43:54.546Z,11.83
2022-11-07T21:46:25.635Z,13.97
2022-11-07T21:48:54.301Z,10.93
2022-11-07T21:51:23.960Z,17.03
2022-11-07T21:53:52.690Z,11.10
2022-11-07T21:56:23.139Z,13.60
2022-11-07T21:58:53.842Z,12.77
2022-11-07T22:01:23.401Z,14.20
2022-11-07T22:04:06.900Z,10.23
2022-11-07T22:06:37.453Z,14.23
2022-11-07T22:09:06.308Z,9.70
2022-11-07T22:11:34.795Z,14.80
2022-11-07T22:14:04.575Z,12.47
2022-11-07T22:16:33.329Z,17.67
2022-11-07T22:19:04.428Z,12.10
2022-11-07T22:21:34.944Z,14.47
2022-11-07T22:24:03.372Z,14.03
2022-11-07T22:26:31.737Z,10.70
2022-11-07T22:29:00.150Z,10.63
2022-11-07T22:31:31.313Z,15.50
2022-11-07T22:34:00.611Z,17.07
2022-11-07T22:36:29.450Z,13.50
2022-11-07T22:38:58.364Z,11.90
2022-11-07T22:41:27.496Z,11.90
2022-11-07T22:43:56.101Z,11.87
2022-11-07T22:46:25.620Z,13.20
2022-11-07T22:48:55.684Z,12.10
2022-11-07T22:51:25.421Z,11.17
2022-11-07T22:53:57.781Z,12.57
2022-11-07T22:56:26.215Z,10.67
2022-11-07T22:58:55.043Z,16.27
2022-11-07T23:01:24.561Z,11.53
2022-11-07T23:03:53.131Z,12.57
2022-11-07T23:06:23.488Z,10.53
2022-11-07T23:08:52.247Z,12.73
2022-11-07T23:14:12.171Z,14.33
2022-11-07T23:16:41.570Z,11.80
2022-11-07T23:19:10.789Z,12.70
2022-11-07T23:21:40.596Z,12.00
2022-11-07T23:24:09.619Z,12.37
2022-11-07T23:26:38.283Z,12.63
2022-11-07T23:29:10.765Z,12.63
2022-11-07T23:31:40.311Z,12.47
2022-11-07T23:34:09.029Z,13.70
2022-11-07T23:36:37.645Z,10.40
2022-11-07T23:39:08.303Z,10.93
2022-11-07T23:41:36.780Z,11.70
2022-11-07T23:44:05.197Z,12.10
2022-11-07T23:46:51.158Z,13.27
2022-11-07T23:49:37.208Z,11.40
2022-11-07T23:52:06.093Z,12.63
2022-11-07T23:54:53.712Z,14.03
2022-11-07T23:57:22.145Z,9.93
